Time;durP1;ratioP1;P1;durP2;ratioP2;P2;SDS_P1;SDS_P2;PMS_P1;PMS_P2;Temp;Humidity;BMP_temperature;BMP_pressure;BME280_temperature;BME280_humidity;BME280_pressure;Samples;Min_cycle;Max_cycle;Signal;HPM_P1;HPM_P2
2023/03/29 00:01:41;;;;;;;;;;;;;;;18.24;55.07;101423.06;2338415;75;51524;-76
2023/03/29 00:04:43;;;;;;;;;;;;;;;18.20;55.14;101424.37;2276047;75;52299;-76
2023/03/29 00:07:45;;;;;;;;;;;;;;;18.18;55.21;101414.31;2293182;75;52310;-75
2023/03/29 00:10:48;;;;;;;;;;;;;;;18.15;55.27;101411.45;2349699;75;50620;-76
2023/03/29 00:13:49;;;;;;;;;;;;;;;18.14;55.35;101421.01;2323632;76;50300;-77
2023/03/29 00:16:51;;;;;;;;;;;;;;;18.13;55.32;101410.77;2308306;75;49565;-77
2023/03/29 00:19:53;;;;;;;;;;;;;;;18.17;55.34;101405.95;2283079;77;50468;-76
2023/03/29 00:22:54;;;;;;;;;;;;;;;18.21;55.32;101401.45;2312780;75;52222;-75
2023/03/29 00:25:56;;;;;;;;;;;;;;;18.30;55.17;101406.32;2296197;75;50103;-76
2023/03/29 00:28:57;;;;;;;;;;;;;;;18.37;55.03;101403.34;2322152;75;52566;-75
2023/03/29 00:31:59;;;;;;;;;;;;;;;18.40;54.89;101398.16;2319409;75;51302;-75
2023/03/29 00:35:01;;;;;;;;;;;;;;;18.40;54.88;101393.63;2313934;77;50710;-75
2023/03/29 00:38:04;;;;;;;;;;;;;;;18.39;54.84;101395.95;2349759;75;50338;-75
2023/03/29 00:41:06;;;;;;;;;;;;;;;18.38;54.84;101394.80;2354446;74;22292;-75
2023/03/29 00:44:10;;;;;;;;;;;;;;;18.35;54.85;101391.94;2299911;75;50385;-74
2023/03/29 00:47:12;;;;;;;;;;;;;;;18.32;54.88;101387.42;2309739;77;51501;-75
2023/03/29 00:50:15;;;;;;;;;;;;;;;18.30;54.89;101387.57;2314178;77;51480;-75
2023/03/29 00:53:18;;;;;;;;;;;;;;;18.28;54.94;101380.19;2278250;75;49658;-74
2023/03/29 00:56:23;;;;;;;;;;;;;;;18.23;55.05;101381.17;2319929;75;50265;-74
2023/03/29 00:59:25;;;;;;;;;;;;;;;18.25;55.08;101376.00;2313451;76;51528;-74
2023/03/29 01:02:27;;;;;;;;;;;;;;;18.30;54.99;101377.36;2312144;77;50761;-73
2023/03/29 01:05:31;;;;;;;;;;;;;;;18.31;54.90;101369.14;2280263;77;51380;-73
2023/03/29 01:08:34;;;;;;;;;;;;;;;18.32;54.88;101369.50;2281063;77;49964;-74
2023/03/29 01:11:43;;;;;;;;;;;;;;;18.29;54.90;101360.45;2312003;77;50243;-73
2023/03/29 01:14:45;;;;;;;;;;;;;;;18.25;54.94;101351.05;2310491;76;50269;-74
2023/03/29 01:17:52;;;;;;;;;;;;;;;18.24;55.05;101356.09;2280732;77;52407;-76
2023/03/29 01:21:01;;;;;;;;;;;;;;;18.22;55.00;101350.05;2312621;76;22340;-75
2023/03/29 01:24:08;;;;;;;;;;;;;;;18.19;55.16;101334.31;2312692;75;22442;-72
2023/03/29 01:27:21;;;;;;;;;;;;;;;18.16;55.23;101333.27;2314010;75;51562;-73
2023/03/29 01:30:24;;;;;;;;;;;;;;;18.15;55.22;101332.44;2282663;76;52566;-73
2023/03/29 01:33:33;;;;;;;;;;;;;;;18.19;55.23;101321.75;2313112;77;51506;-73
2023/03/29 01:36:39;;;;;;;;;;;;;;;18.28;55.14;101319.41;2313013;77;50693;-73
2023/03/29 01:39:40;;;;;;;;;;;;;;;18.35;55.02;101310.22;2314289;77;51407;-73
2023/03/29 01:42:45;;;;;;;;;;;;;;;18.38;54.92;101309.05;2283554;76;52505;-75
2023/03/29 01:46:05;;;;;;;;;;;;;;;18.39;54.85;101302.17;2305275;76;50679;-73
2023/03/29 01:49:23;;;;;;;;;;;;;;;18.39;54.83;101291.45;2313941;77;51555;-73
2023/03/29 01:52:29;;;;;;;;;;;;;;;18.38;54.79;101292.98;2327115;75;50787;-73
2023/03/29 01:55:33;;;;;;;;;;;;;;;18.34;54.83;101285.78;2283570;77;50104;-72
2023/03/29 01:58:37;;;;;;;;;;;;;;;18.31;54.88;101282.07;2310825;77;50666;-72
2023/03/29 02:01:40;;;;;;;;;;;;;;;18.28;54.94;101275.72;2311987;77;50323;-70
2023/03/29 02:04:47;;;;;;;;;;;;;;;18.21;55.08;101265.31;2311864;77;51581;-73
2023/03/29 02:07:46;;;;;;;;;;;;;;;18.16;55.21;101269.86;2311762;77;22401;-73
2023/03/29 02:10:48;;;;;;;;;;;;;;;18.19;55.27;101256.12;2312117;77;50386;-72
2023/03/29 02:13:50;;;;;;;;;;;;;;;18.27;55.13;101260.66;2326068;75;50289;-72
2023/03/29 02:16:51;;;;;;;;;;;;;;;18.31;55.00;101255.28;2353900;74;50220;-72
2023/03/29 02:19:54;;;;;;;;;;;;;;;18.31;54.99;101260.64;2321298;75;49620;-72
2023/03/29 02:22:57;;;;;;;;;;;;;;;18.30;54.94;101257.64;2332984;75;51472;-73
2023/03/29 02:25:59;;;;;;;;;;;;;;;18.26;54.98;101249.59;2321492;75;51605;-73
2023/03/29 02:29:01;;;;;;;;;;;;;;;18.22;55.03;101248.27;2311879;77;50310;-72
2023/03/29 02:32:04;;;;;;;;;;;;;;;18.19;55.10;101239.22;2280682;77;50134;-73
2023/03/29 02:35:16;;;;;;;;;;;;;;;18.15;55.16;101232.00;2315328;75;50582;-73
2023/03/29 02:38:18;;;;;;;;;;;;;;;18.14;55.27;101234.87;2312648;76;50801;-72
2023/03/29 02:41:20;;;;;;;;;;;;;;;18.10;55.34;101222.80;2350683;75;51398;-73
2023/03/29 02:44:22;;;;;;;;;;;;;;;18.12;55.39;101230.17;2306885;75;50197;-73
2023/03/29 02:47:28;;;;;;;;;;;;;;;18.16;55.32;101214.09;2313949;75;51489;-73
2023/03/29 02:50:32;;;;;;;;;;;;;;;18.27;55.12;101217.80;2313233;75;50425;-73
2023/03/29 02:53:34;;;;;;;;;;;;;;;18.36;54.89;101210.58;2319802;75;50463;-73
2023/03/29 02:56:43;;;;;;;;;;;;;;;18.41;54.68;101204.22;2282693;75;52605;-74
2023/03/29 02:59:45;;;;;;;;;;;;;;;18.41;54.62;101200.20;2311823;77;51510;-73
2023/03/29 03:02:47;;;;;;;;;;;;;;;18.40;54.63;101202.05;2280933;77;51494;-73
2023/03/29 03:05:51;;;;;;;;;;;;;;;18.38;54.62;101198.69;2315568;75;51522;-73
2023/03/29 03:08:52;;;;;;;;;;;;;;;18.36;54.67;101200.70;2282718;77;51857;-73
2023/03/29 03:11:54;;;;;;;;;;;;;;;18.31;54.75;101193.66;2288608;75;50367;-73
2023/03/29 03:14:56;;;;;;;;;;;;;;;18.26;54.84;101194.67;2351301;75;50233;-72
2023/03/29 03:17:59;;;;;;;;;;;;;;;18.21;54.95;101190.31;2321898;75;50677;-72
2023/03/29 03:21:01;;;;;;;;;;;;;;;18.14;55.10;101188.00;2322101;75;51136;-73
2023/03/29 03:24:03;;;;;;;;;;;;;;;18.17;55.21;101179.63;2297051;75;51585;-74
2023/03/29 03:27:05;;;;;;;;;;;;;;;18.26;55.01;101180.80;2312086;77;50637;-73
2023/03/29 03:30:07;;;;;;;;;;;;;;;18.30;54.92;101174.59;2280912;77;50670;-72
2023/03/29 03:33:09;;;;;;;;;;;;;;;18.31;54.86;101172.23;2255720;77;50285;-72
2023/03/29 03:36:10;;;;;;;;;;;;;;;18.31;54.87;101170.89;2311196;75;50711;-72
2023/03/29 03:39:12;;;;;;;;;;;;;;;18.29;54.87;101170.25;2354002;74;50342;-73
2023/03/29 03:42:13;;;;;;;;;;;;;;;18.27;54.85;101165.55;2321631;75;50288;-73
2023/03/29 03:45:15;;;;;;;;;;;;;;;18.24;54.91;101160.55;2293689;75;52408;-73
2023/03/29 03:48:17;;;;;;;;;;;;;;;18.20;54.99;101159.19;2321491;75;50758;-73
2023/03/29 03:51:18;;;;;;;;;;;;;;;18.17;55.08;101159.02;2353884;75;51290;-73
2023/03/29 03:54:20;;;;;;;;;;;;;;;18.15;55.11;101164.22;2287861;76;51574;-73
2023/03/29 03:57:23;;;;;;;;;;;;;;;18.15;55.20;101159.69;2291615;75;52266;-73
2023/03/29 04:00:25;;;;;;;;;;;;;;;18.18;55.22;101151.31;2353867;74;50339;-72
2023/03/29 04:03:26;;;;;;;;;;;;;;;18.27;55.11;101163.71;2321269;75;51631;-73
2023/03/29 04:06:29;;;;;;;;;;;;;;;18.35;54.94;101148.64;2351325;75;50304;-73
2023/03/29 04:09:32;;;;;;;;;;;;;;;18.38;54.80;101150.47;2321491;75;49686;-73
2023/03/29 04:12:33;;;;;;;;;;;;;;;18.39;54.73;101153.47;2343755;75;50703;-74
2023/03/29 04:15:37;;;;;;;;;;;;;;;18.39;54.68;101153.47;2322659;75;50716;-74
2023/03/29 04:18:38;;;;;;;;;;;;;;;18.38;54.69;101153.14;2314072;76;22777;-75
2023/03/29 04:21:40;;;;;;;;;;;;;;;18.36;54.72;101157.83;2258327;77;51375;-72
2023/03/29 04:24:41;;;;;;;;;;;;;;;18.34;54.69;101149.16;2315936;75;51451;-72
2023/03/29 04:27:43;;;;;;;;;;;;;;;18.30;54.73;101150.98;2353917;74;51420;-72
2023/03/29 04:30:45;;;;;;;;;;;;;;;18.26;54.80;101149.13;2355243;75;51413;-72
2023/03/29 04:33:47;;;;;;;;;;;;;;;18.19;55.00;101147.65;2327926;75;51322;-73
2023/03/29 04:36:49;;;;;;;;;;;;;;;18.19;55.12;101152.17;2288892;76;50405;-72
2023/03/29 04:39:51;;;;;;;;;;;;;;;18.26;54.97;101152.67;2317862;76;50226;-72
2023/03/29 04:42:53;;;;;;;;;;;;;;;18.28;54.90;101146.63;2347302;74;51515;-73
2023/03/29 04:45:55;;;;;;;;;;;;;;;18.27;54.89;101145.47;2318044;75;51551;-72
2023/03/29 04:48:57;;;;;;;;;;;;;;;18.26;54.89;101141.09;2294275;76;50631;-72
2023/03/29 04:51:59;;;;;;;;;;;;;;;18.25;54.88;101139.44;2311944;77;50313;-73
2023/03/29 04:55:01;;;;;;;;;;;;;;;18.20;54.93;101135.09;2286688;75;51425;-73
2023/03/29 04:58:03;;;;;;;;;;;;;;;18.17;55.00;101137.59;2353821;74;51388;-72
2023/03/29 05:01:05;;;;;;;;;;;;;;;18.14;55.09;101131.24;2346896;75;50310;-72
2023/03/29 05:04:07;;;;;;;;;;;;;;;18.14;55.20;101131.75;2353695;75;50696;-73
2023/03/29 05:07:08;;;;;;;;;;;;;;;18.10;55.25;101131.23;2318487;75;50066;-74
2023/03/29 05:10:10;;;;;;;;;;;;;;;18.12;55.39;101121.70;2274577;77;51049;-77
2023/03/29 05:13:12;;;;;;;;;;;;;;;18.19;55.43;101125.39;2286751;75;51562;-72
2023/03/29 05:16:14;;;;;;;;;;;;;;;18.27;55.57;101123.53;2319524;75;50284;-73
2023/03/29 05:19:16;;;;;;;;;;;;;;;18.33;55.50;101116.65;2323996;75;51521;-74
2023/03/29 05:22:19;;;;;;;;;;;;;;;18.38;55.47;101110.79;2311981;77;50272;-75
2023/03/29 05:25:20;;;;;;;;;;;;;;;18.41;55.28;101112.61;2280854;77;50666;-75
2023/03/29 05:28:22;;;;;;;;;;;;;;;18.41;55.37;101108.59;2281528;77;50078;-74
2023/03/29 05:31:23;;;;;;;;;;;;;;;18.40;55.53;101104.77;2280657;77;50673;-74
2023/03/29 05:34:25;;;;;;;;;;;;;;;18.41;55.43;101104.57;2280469;77;51694;-74
2023/03/29 05:37:27;;;;;;;;;;;;;;;18.38;55.34;101106.27;2311916;77;50426;-74
2023/03/29 05:40:30;;;;;;;;;;;;;;;18.35;55.34;101104.44;2312073;77;50716;-75
2023/03/29 05:43:32;;;;;;;;;;;;;;;18.32;55.34;101105.61;2311936;77;51456;-74
2023/03/29 05:46:34;;;;;;;;;;;;;;;18.28;55.44;101099.73;2282003;77;50192;-74
2023/03/29 05:49:36;;;;;;;;;;;;;;;18.29;55.52;101108.64;2323976;76;51581;-74
2023/03/29 05:52:39;;;;;;;;;;;;;;;18.36;55.33;101100.23;2281194;77;50296;-74
2023/03/29 05:55:41;;;;;;;;;;;;;;;18.39;55.27;101093.19;2335195;75;51585;-75
2023/03/29 05:58:44;;;;;;;;;;;;;;;18.34;55.34;101092.03;2321811;75;52505;-75
2023/03/29 06:01:46;;;;;;;;;;;;;;;18.35;55.61;101101.76;2321947;75;50373;-74
2023/03/29 06:04:47;;;;;;;;;;;;;;;18.32;55.46;101106.95;2350324;75;51481;-74
2023/03/29 06:07:50;;;;;;;;;;;;;;;18.36;55.45;101098.06;2313912;77;50407;-76
2023/03/29 06:10:54;;;;;;;;;;;;;;;18.35;55.49;101099.91;2282629;77;52725;-75
2023/03/29 06:13:56;;;;;;;;;;;;;;;18.31;55.64;101101.75;2327457;75;51465;-74
2023/03/29 06:16:57;;;;;;;;;;;;;;;18.26;55.65;101096.42;2337470;75;50276;-74
2023/03/29 06:19:59;;;;;;;;;;;;;;;18.31;55.77;101097.73;2303180;76;49610;-76
2023/03/29 06:23:01;;;;;;;;;;;;;;;18.31;55.83;101099.91;2329564;75;51512;-76
2023/03/29 06:26:03;;;;;;;;;;;;;;;18.38;55.75;101092.86;2341362;75;52876;-74
2023/03/29 06:29:05;;;;;;;;;;;;;;;18.47;55.54;101099.89;2285321;75;51567;-75
2023/03/29 06:32:07;;;;;;;;;;;;;;;18.50;55.38;101096.03;2329630;75;50697;-76
2023/03/29 06:35:10;;;;;;;;;;;;;;;18.52;55.29;101098.01;2302283;75;52295;-75
2023/03/29 06:38:12;;;;;;;;;;;;;;;18.48;55.31;101094.84;2322663;75;50666;-77
2023/03/29 06:41:14;;;;;;;;;;;;;;;18.48;55.34;101094.84;2286410;75;50290;-75
2023/03/29 06:44:16;;;;;;;;;;;;;;;18.49;55.35;101091.66;2345332;75;50413;-74
2023/03/29 06:47:17;;;;;;;;;;;;;;;18.46;55.42;101092.01;2307706;75;52572;-75
2023/03/29 06:50:19;;;;;;;;;;;;;;;18.43;55.43;101089.17;2337546;75;50294;-75
2023/03/29 06:53:21;;;;;;;;;;;;;;;18.43;55.53;101093.19;2295097;75;51553;-75
2023/03/29 06:56:22;;;;;;;;;;;;;;;18.37;55.47;101087.19;2304692;75;51308;-75
2023/03/29 06:59:24;;;;;;;;;;;;;;;18.34;55.56;101087.53;2358143;75;50604;-75
2023/03/29 07:02:26;;;;;;;;;;;;;;;18.38;55.40;101083.48;2328379;75;50716;-76
2023/03/29 07:05:28;;;;;;;;;;;;;;;18.40;55.48;101082.81;2326598;75;50450;-74
2023/03/29 07:08:30;;;;;;;;;;;;;;;18.42;55.52;101084.83;2321696;75;51580;-74
2023/03/29 07:11:35;;;;;;;;;;;;;;;18.40;55.48;101084.16;2315496;75;51258;-75
2023/03/29 07:14:37;;;;;;;;;;;;;;;18.38;55.54;101082.66;2296246;75;50803;-75
2023/03/29 07:17:38;;;;;;;;;;;;;;;18.38;55.57;101086.16;2313639;74;51461;-75
2023/03/29 07:20:41;;;;;;;;;;;;;;;18.36;55.54;101085.49;2311565;75;50581;-74
2023/03/29 07:23:42;;;;;;;;;;;;;;;18.35;55.58;101087.02;2281889;75;51150;-74
2023/03/29 07:26:44;;;;;;;;;;;;;;;18.33;55.59;101080.48;2331590;75;50584;-74
2023/03/29 07:29:47;;;;;;;;;;;;;;;18.27;55.70;101073.14;2311716;75;51383;-74
2023/03/29 07:32:49;;;;;;;;;;;;;;;18.25;55.84;101077.31;2280287;77;50372;-75
2023/03/29 07:35:51;;;;;;;;;;;;;;;18.32;55.84;101074.80;2269105;77;51700;-76
2023/03/29 07:38:52;;;;;;;;;;;;;;;18.39;55.68;101077.11;2296531;76;51835;-76
2023/03/29 07:41:56;;;;;;;;;;;;;;;18.44;55.58;101074.75;2334078;76;51334;-76
2023/03/29 07:44:58;;;;;;;;;;;;;;;18.46;55.49;101079.44;2313682;77;51578;-76
2023/03/29 07:48:00;;;;;;;;;;;;;;;18.47;55.34;101079.80;2285456;77;51761;-75
2023/03/29 07:51:02;;;;;;;;;;;;;;;18.47;55.29;101079.80;2282847;77;50657;-74
2023/03/29 07:54:05;;;;;;;;;;;;;;;18.44;55.31;101073.41;2317098;75;51561;-73
2023/03/29 07:57:07;;;;;;;;;;;;;;;18.43;55.29;101074.43;2314412;75;50677;-74
2023/03/29 08:00:14;;;;;;;;;;;;;;;18.44;55.21;101069.39;2296027;75;50832;-74
2023/03/29 08:03:16;;;;;;;;;;;;;;;18.45;55.10;101064.39;2331764;75;50354;-74
2023/03/29 08:06:18;;;;;;;;;;;;;;;18.41;55.16;101055.52;2353759;75;50363;-75
2023/03/29 08:09:20;;;;;;;;;;;;;;;18.41;55.29;101057.69;2330512;74;51586;-76
2023/03/29 08:12:21;;;;;;;;;;;;;;;18.50;55.21;101066.05;2257936;77;50108;-74
2023/03/29 08:15:23;;;;;;;;;;;;;;;18.54;55.28;101067.03;2314011;75;51480;-74
2023/03/29 08:18:25;;;;;;;;;;;;;;;18.52;55.95;101076.58;2316848;75;51457;-74
2023/03/29 08:21:26;;;;;;;;;;;;;;;18.49;56.65;101072.39;2313853;77;51575;-74
2023/03/29 08:24:28;;;;;;;;;;;;;;;18.52;56.22;101065.85;2283465;75;50674;-73
2023/03/29 08:27:30;;;;;;;;;;;;;;;18.53;56.09;101061.35;2270629;77;51446;-75
2023/03/29 08:30:32;;;;;;;;;;;;;;;18.48;56.13;101070.73;2314018;75;50816;-76
2023/03/29 08:33:33;;;;;;;;;;;;;;;18.45;56.24;101072.94;2283029;77;50292;-75
2023/03/29 08:36:35;;;;;;;;;;;;;;;18.40;56.54;101069.42;2311881;75;49484;-74
2023/03/29 08:39:37;;;;;;;;;;;;;;;18.39;56.54;101057.02;2342148;75;51510;-75
2023/03/29 08:42:43;;;;;;;;;;;;;;;18.38;56.61;101052.67;2314099;77;51438;-76
2023/03/29 08:45:56;;;;;;;;;;;;;;;18.38;56.74;101047.83;2313929;77;50810;-76
2023/03/29 08:48:59;;;;;;;;;;;;;;;18.43;56.92;101050.83;2270607;75;52324;-74
2023/03/29 08:52:01;;;;;;;;;;;;;;;18.47;56.79;101046.30;2354167;75;50298;-74
2023/03/29 08:55:04;;;;;;;;;;;;;;;18.44;56.53;101043.94;2320950;75;50664;-75
2023/03/29 08:58:07;;;;;;;;;;;;;;;18.43;56.44;101039.59;2330370;75;51577;-76
2023/03/29 09:01:10;;;;;;;;;;;;;;;18.46;56.69;101043.27;2288544;76;51206;-75
2023/03/29 09:04:20;;;;;;;;;;;;;;;18.49;56.52;101029.52;2346859;75;51564;-75
2023/03/29 09:07:22;;;;;;;;;;;;;;;18.52;56.34;101035.55;2340608;75;50261;-75
2023/03/29 09:10:25;;;;;;;;;;;;;;;18.52;56.23;101031.02;2316661;75;50740;-76
2023/03/29 09:13:45;;;;;;;;;;;;;;;18.46;56.25;101028.53;2281732;77;51738;-76
2023/03/29 09:16:48;;;;;;;;;;;;;;;18.44;56.20;101023.02;2313957;77;51463;-75
2023/03/29 09:20:01;;;;;;;;;;;;;;;18.43;56.25;101019.50;2320174;75;50810;-74
2023/03/29 09:23:10;;;;;;;;;;;;;;;18.41;56.33;101016.16;2353587;75;51639;-76
2023/03/29 09:26:14;;;;;;;;;;;;;;;18.40;56.54;101013.16;2353718;75;51537;-76
2023/03/29 09:29:17;;;;;;;;;;;;;;;18.39;56.50;101013.31;2336441;75;50766;-76
2023/03/29 09:32:21;;;;;;;;;;;;;;;18.36;56.44;101022.53;2347398;76;51518;-76
2023/03/29 09:35:23;;;;;;;;;;;;;;;18.37;56.35;101017.53;2334610;76;50115;-76
2023/03/29 09:38:26;;;;;;;;;;;;;;;18.36;56.30;101021.20;2282943;77;50102;-76
2023/03/29 09:41:29;;;;;;;;;;;;;;;18.38;56.29;101016.51;2329922;75;50302;-76
2023/03/29 09:44:32;;;;;;;;;;;;;;;18.37;56.22;101007.29;2314792;75;50271;-76
2023/03/29 09:47:41;;;;;;;;;;;;;;;18.32;56.38;101007.00;2348753;75;50222;-76
2023/03/29 09:50:45;;;;;;;;;;;;;;;18.31;56.41;101003.97;2317538;75;51383;-75
2023/03/29 09:53:47;;;;;;;;;;;;;;;18.32;56.35;100999.80;2283003;77;50341;-76
2023/03/29 09:56:48;;;;;;;;;;;;;;;18.34;56.27;101000.95;2314049;75;50642;-76
2023/03/29 09:59:51;;;;;;;;;;;;;;;18.33;56.22;100993.92;2324613;76;50694;-76
2023/03/29 10:02:53;;;;;;;;;;;;;;;18.30;56.29;100989.75;2317392;76;52382;-75
2023/03/29 10:05:55;;;;;;;;;;;;;;;18.28;56.29;100988.58;2347088;76;50403;-76
2023/03/29 10:08:58;;;;;;;;;;;;;;;18.26;56.32;100989.27;2347437;74;51546;-76
2023/03/29 10:12:03;;;;;;;;;;;;;;;18.26;56.33;100993.77;2338028;76;50560;-76
2023/03/29 10:15:05;;;;;;;;;;;;;;;18.24;56.33;100991.28;2290544;76;51039;-75
2023/03/29 10:18:09;;;;;;;;;;;;;;;18.28;56.24;100990.42;2312285;77;51432;-76
2023/03/29 10:21:11;;;;;;;;;;;;;;;18.21;56.35;100978.23;2312432;77;22402;-76
2023/03/29 10:24:13;;;;;;;;;;;;;;;18.26;56.27;100976.36;2316383;75;50137;-76
2023/03/29 10:27:14;;;;;;;;;;;;;;;18.32;56.08;100966.31;2291994;75;51718;-76
2023/03/29 10:30:21;;;;;;;;;;;;;;;18.36;55.94;100964.94;2321611;75;51466;-76
2023/03/29 10:33:23;;;;;;;;;;;;;;;18.36;55.91;100965.45;2301819;75;50128;-76
2023/03/29 10:36:25;;;;;;;;;;;;;;;18.34;55.93;100962.96;2314417;75;51558;-75
2023/03/29 10:39:28;;;;;;;;;;;;;;;18.34;55.96;100968.31;2283200;77;51518;-76
2023/03/29 10:42:29;;;;;;;;;;;;;;;18.31;55.96;100961.94;2318092;75;50788;-76
2023/03/29 10:45:32;;;;;;;;;;;;;;;18.29;56.06;100955.95;2297226;75;50220;-75
2023/03/29 10:48:35;;;;;;;;;;;;;;;18.27;56.12;100957.45;2310725;75;50313;-75
2023/03/29 10:51:36;;;;;;;;;;;;;;;18.32;55.66;100951.58;2263994;77;51022;-77
2023/03/29 10:54:38;;;;;;;;;;;;;;;17.70;48.25;100942.00;2288943;75;51447;-77
2023/03/29 10:57:44;;;;;;;;;;;;;;;17.40;46.37;100933.69;2354136;75;51378;-78
2023/03/29 11:00:53;;;;;;;;;;;;;;;17.35;45.08;100938.70;2354022;74;51509;-77
2023/03/29 11:04:00;;;;;;;;;;;;;;;17.09;43.30;100934.35;2295636;75;52347;-77
2023/03/29 11:07:21;;;;;;;;;;;;;;;17.41;44.52;100931.33;2315209;75;51562;-77
2023/03/29 11:10:24;;;;;;;;;;;;;;;17.69;44.67;100920.27;2312378;76;50775;-78
2023/03/29 11:13:43;;;;;;;;;;;;;;;17.91;44.88;100919.58;2312502;75;54065;-75
2023/03/29 11:16:56;;;;;;;;;;;;;;;18.02;45.30;100927.75;2281744;77;50992;-75
2023/03/29 11:20:05;;;;;;;;;;;;;;;18.10;45.63;100921.02;2280554;77;51262;-74
2023/03/29 11:23:08;;;;;;;;;;;;;;;18.17;45.99;100930.03;2311114;76;50361;-74
2023/03/29 11:26:21;;;;;;;;;;;;;;;18.26;46.31;100914.27;2314074;75;50267;-73
2023/03/29 11:29:24;;;;;;;;;;;;;;;18.35;46.81;100916.91;2313801;77;50671;-75
2023/03/29 11:32:30;;;;;;;;;;;;;;;18.43;47.51;100913.67;2317087;75;50658;-74
2023/03/29 11:35:52;;;;;;;;;;;;;;;18.50;48.61;100915.98;2311053;75;51577;-76
2023/03/29 11:39:11;;;;;;;;;;;;;;;18.56;49.73;100917.63;2295208;75;49999;-76
2023/03/29 11:42:16;;;;;;;;;;;;;;;18.57;50.33;100912.59;2305197;76;52569;-76
2023/03/29 11:45:28;;;;;;;;;;;;;;;18.53;50.98;100892.53;2334125;74;50448;-75
2023/03/29 11:48:35;;;;;;;;;;;;;;;18.50;52.05;100893.20;2344705;76;51513;-74
2023/03/29 11:51:38;;;;;;;;;;;;;;;18.50;52.45;100895.06;2332868;75;50323;-77
2023/03/29 11:54:44;;;;;;;;;;;;;;;18.49;53.60;100894.71;2319578;74;50281;-76
2023/03/29 11:57:52;;;;;;;;;;;;;;;18.49;53.87;100900.89;2329344;75;51724;-75
2023/03/29 12:00:55;;;;;;;;;;;;;;;18.48;54.29;100901.92;2348000;74;50850;-74
2023/03/29 12:03:58;;;;;;;;;;;;;;;18.48;54.48;100900.58;2329443;75;50906;-74
2023/03/29 12:07:14;;;;;;;;;;;;;;;18.48;54.63;100893.88;2274248;77;51773;-74
2023/03/29 12:10:19;;;;;;;;;;;;;;;18.48;54.82;100902.43;2344479;76;50457;-73
2023/03/29 12:13:26;;;;;;;;;;;;;;;18.48;55.02;100895.22;2302019;76;50933;-73
2023/03/29 12:16:31;;;;;;;;;;;;;;;18.47;55.10;100885.53;2332778;75;49888;-75
2023/03/29 12:19:37;;;;;;;;;;;;;;;18.47;55.46;100887.34;2305631;76;51699;-76
2023/03/29 12:22:38;;;;;;;;;;;;;;;18.45;55.71;100879.50;2317341;75;50695;-77
2023/03/29 12:25:48;;;;;;;;;;;;;;;18.44;55.79;100876.48;2328903;75;51476;-75
2023/03/29 12:28:57;;;;;;;;;;;;;;;18.42;55.99;100875.84;2305033;77;50692;-76
2023/03/29 12:32:13;;;;;;;;;;;;;;;18.37;56.04;100887.59;2287234;76;50994;-73
2023/03/29 12:35:22;;;;;;;;;;;;;;;18.33;56.11;100879.56;2343686;74;50711;-73
2023/03/29 12:38:25;;;;;;;;;;;;;;;18.31;56.34;100878.90;2325326;75;51453;-74
2023/03/29 12:41:27;;;;;;;;;;;;;;;18.29;56.64;100883.63;2346202;75;52209;-73
2023/03/29 12:44:28;;;;;;;;;;;;;;;18.27;56.90;100882.95;2327336;74;50246;-74
2023/03/29 12:47:32;;;;;;;;;;;;;;;18.26;57.13;100883.95;2294646;77;51498;-73
2023/03/29 12:50:34;;;;;;;;;;;;;;;18.26;57.38;100865.20;2326221;75;51546;-73
2023/03/29 12:53:37;;;;;;;;;;;;;;;18.22;57.48;100872.77;2306103;75;50095;-75
2023/03/29 12:56:44;;;;;;;;;;;;;;;18.23;57.94;100865.55;2281060;75;52433;-74
2023/03/29 12:59:46;;;;;;;;;;;;;;;18.28;58.29;100867.20;2299475;76;52982;-75
2023/03/29 13:02:59;;;;;;;;;;;;;;;18.32;58.38;100854.31;2321511;74;50499;-76
2023/03/29 13:06:02;;;;;;;;;;;;;;;18.36;58.49;100845.72;2337826;76;51637;-74
2023/03/29 13:09:05;;;;;;;;;;;;;;;18.42;58.35;100836.14;2326663;75;50703;-75
2023/03/29 13:12:11;;;;;;;;;;;;;;;18.44;58.36;100830.92;2336705;75;50663;-74
2023/03/29 13:15:16;;;;;;;;;;;;;;;18.46;58.35;100818.19;2324027;76;50300;-73
2023/03/29 13:18:37;;;;;;;;;;;;;;;18.47;58.48;100820.36;2312264;75;50401;-76
2023/03/29 13:21:57;;;;;;;;;;;;;;;18.48;58.59;100837.61;2312988;75;50295;-75
2023/03/29 13:25:05;;;;;;;;;;;;;;;18.48;58.61;100826.89;2280991;75;51288;-75
2023/03/29 13:28:18;;;;;;;;;;;;;;;18.48;58.66;100828.23;2323980;76;50905;-76
2023/03/29 13:31:34;;;;;;;;;;;;;;;18.48;58.67;100828.23;2335446;75;51548;-76
2023/03/29 13:34:53;;;;;;;;;;;;;;;18.49;58.81;100828.55;2307437;76;50019;-76
2023/03/29 13:37:57;;;;;;;;;;;;;;;18.48;58.84;100828.23;2347643;75;50769;-76
2023/03/29 13:41:03;;;;;;;;;;;;;;;18.48;58.95;100838.95;2336692;74;53003;-76
2023/03/29 13:44:06;;;;;;;;;;;;;;;18.47;59.02;100842.66;2332735;75;51570;-76
2023/03/29 13:47:27;;;;;;;;;;;;;;;18.46;59.04;100843.65;2326093;76;51488;-75
2023/03/29 13:50:36;;;;;;;;;;;;;;;18.44;59.03;100836.80;2308749;76;51084;-75
2023/03/29 13:53:42;;;;;;;;;;;;;;;18.41;59.19;100829.95;2282803;77;50734;-75
2023/03/29 13:56:58;;;;;;;;;;;;;;;18.38;59.19;100829.48;2323785;75;50524;-74
2023/03/29 14:00:05;;;;;;;;;;;;;;;18.37;59.36;100829.99;2275516;78;51546;-75
2023/03/29 14:03:06;;;;;;;;;;;;;;;18.36;59.13;100824.80;2275218;78;22358;-78
2023/03/29 14:06:08;;;;;;;;;;;;;;;18.33;59.32;100820.63;2275454;77;51573;-75
2023/03/29 14:09:11;;;;;;;;;;;;;;;18.32;59.76;100829.69;2275579;78;51431;-76
2023/03/29 14:12:13;;;;;;;;;;;;;;;18.27;59.21;100819.50;2340638;75;50530;-76
2023/03/29 14:15:20;;;;;;;;;;;;;;;18.34;58.94;100818.30;2321396;75;51880;-75
2023/03/29 14:18:22;;;;;;;;;;;;;;;18.39;58.65;100818.57;2353276;75;51393;-74
2023/03/29 14:21:24;;;;;;;;;;;;;;;18.39;58.66;100822.59;2353021;75;51543;-75
2023/03/29 14:24:26;;;;;;;;;;;;;;;18.39;58.69;100829.28;2353809;75;50768;-76
2023/03/29 14:27:30;;;;;;;;;;;;;;;18.36;58.82;100820.27;2324408;75;50419;-75
2023/03/29 14:30:32;;;;;;;;;;;;;;;18.33;58.80;100827.33;2280957;77;50113;-75
2023/03/29 14:33:33;;;;;;;;;;;;;;;18.30;59.12;100822.84;2311761;77;51457;-75
2023/03/29 14:36:35;;;;;;;;;;;;;;;18.26;59.29;100822.34;2333468;75;51482;-75
2023/03/29 14:39:37;;;;;;;;;;;;;;;18.22;59.59;100821.05;2321493;75;51089;-75
2023/03/29 14:42:38;;;;;;;;;;;;;;;18.20;59.83;100815.02;2321598;75;51499;-74
2023/03/29 14:45:40;;;;;;;;;;;;;;;18.15;59.81;100817.40;2339663;75;51405;-76
2023/03/29 14:48:41;;;;;;;;;;;;;;;18.21;59.31;100818.88;2354066;75;50190;-75
2023/03/29 14:51:46;;;;;;;;;;;;;;;18.22;56.48;100807.66;2296663;75;51204;-76
2023/03/29 14:54:50;;;;;;;;;;;;;;;18.24;57.37;100816.36;2353656;75;50797;-73
2023/03/29 14:57:53;;;;;;;;;;;;;;;18.28;58.01;100809.61;2335076;74;51516;-74
2023/03/29 15:00:54;;;;;;;;;;;;;;;18.27;57.83;100806.62;2348902;75;52206;-74
2023/03/29 15:03:57;;;;;;;;;;;;;;;18.25;58.15;100800.59;2321097;75;52439;-73
2023/03/29 15:06:58;;;;;;;;;;;;;;;18.29;58.96;100809.96;2280601;76;51192;-73
2023/03/29 15:10:00;;;;;;;;;;;;;;;18.34;59.11;100804.91;2278364;75;50308;-74
2023/03/29 15:13:03;;;;;;;;;;;;;;;18.33;59.15;100804.56;2353823;75;51585;-73
2023/03/29 15:16:04;;;;;;;;;;;;;;;18.34;59.20;100799.55;2317845;75;50110;-73
2023/03/29 15:19:06;;;;;;;;;;;;;;;18.34;59.34;100804.91;2313985;76;50261;-72
2023/03/29 15:22:09;;;;;;;;;;;;;;;18.39;59.45;100795.80;2314821;75;50258;-72
2023/03/29 15:25:17;;;;;;;;;;;;;;;18.39;59.44;100794.45;2321398;75;50336;-74
2023/03/29 15:28:29;;;;;;;;;;;;;;;18.41;59.30;100795.12;2269062;77;52278;-74
2023/03/29 15:31:33;;;;;;;;;;;;;;;18.41;59.35;100791.10;2321863;75;50665;-74
2023/03/29 15:34:37;;;;;;;;;;;;;;;18.42;59.42;100779.39;2313668;76;50144;-74
2023/03/29 15:37:38;;;;;;;;;;;;;;;18.39;59.18;100775.70;2338738;75;22424;-74
2023/03/29 15:40:40;;;;;;;;;;;;;;;18.40;59.58;100765.34;2312743;75;52482;-73
2023/03/29 15:43:41;;;;;;;;;;;;;;;18.41;59.65;100754.11;2313742;77;50757;-74